Airfield :
LOGIN :

Register | Disclaimer

   EN    FR    IT 

 










Legend :    VFR   Marginal VFR   IFR   Intensive IFR   Very Intensive IFR
Visi :
Ceiling :
>= 8 km
>= 3000ft
5 to 8 km
1000 to 3000 ft
1500m to 5 km
500 to 1000 ft
800 to 1500m
200 to 500 ft
< 800m
< 200 ft
Symbols :   Thunderstorms  Fog  Heavy snow  Heavy precipitations  Wind > 20 kt
SIGMETs :     Misc.  Thunderstorms  Icing  Turbulence  Mountain Waves  Volcanic Ashes






- Airport Elevation : 1345 ft
- IATA code : FRZ


ETHF - Fritzlar

CURRENT METAR :
  • 250620Z 23009KT 9999 VCSH BKN030 09/04 Q1001 BLU BLU TEMPO WHT

EXPIRED METARs :
  • 250520Z 21009KT 9999 FEW030 BKN035 09/06 Q1001 BLU BLU TEMPO WHT
  • 250420Z 20011KT 9999 FEW029 BKN180 08/06 Q1001 BLU

TAF TAF ETHF
Valid from the 25 at 06:00 until the 25 at 15:00 UTC


250520Z 2506/2515 22010KT 9999 NSW SCT025 BKN040
TEMPO 2506/2511 23012G22KT 9999 NSW BKN020



MET'MAP, your aeronautical weather chart ! - Copyright ORBIFLY December 2007 - Disclaimer

ORBIFLY MET'MAP TEAM :

Programming & Development : Alexandra Zaïnal
Concept & original design : Baudouin d'Aumeries
Assistance for programming : Marc-Olivier Méhu
Technical & hardware support : Manuel Goepfert

Contact : metmap@orbifly.com




SOURCES & CREDITS :

   NOAA